Time;durP1;ratioP1;P1;durP2;ratioP2;P2;SDS_P1;SDS_P2;PMS_P1;PMS_P2;Temp;Humidity;BMP_temperature;BMP_pressure;BME280_temperature;BME280_humidity;BME280_pressure;Samples;Min_cycle;Max_cycle;Signal;HPM_P1;HPM_P2
2024/02/04 00:00:50;;;;;;;2.55;1.08;;;22.40;43.20;;;;;;5132369;27;20047;-34
2024/02/04 00:03:16;;;;;;;1.65;1.23;;;22.40;43.20;;;;;;5134138;27;20076;-38
2024/02/04 00:05:42;;;;;;;1.45;1.10;;;22.40;43.30;;;;;;5134272;27;20027;-34
2024/02/04 00:08:09;;;;;;;1.70;1.02;;;22.40;43.30;;;;;;5135120;27;20112;-33
2024/02/04 00:10:35;;;;;;;2.92;1.20;;;22.30;43.30;;;;;;5137014;27;20154;-38
2024/02/04 00:13:01;;;;;;;1.40;1.20;;;22.30;43.40;;;;;;5128329;27;20039;-34
2024/02/04 00:15:27;;;;;;;1.42;1.00;;;22.30;43.50;;;;;;5132820;27;20318;-35
2024/02/04 00:17:54;;;;;;;2.10;1.27;;;22.30;43.40;;;;;;5129460;27;20146;-33
2024/02/04 00:20:20;;;;;;;1.90;1.00;;;22.40;43.40;;;;;;5130028;27;20031;-35
2024/02/04 00:22:46;;;;;;;1.55;1.20;;;22.40;43.30;;;;;;5134309;27;20027;-37
2024/02/04 00:25:14;;;;;;;1.10;1.00;;;22.30;43.30;;;;;;5132984;27;20035;-34
2024/02/04 00:27:40;;;;;;;7.53;1.30;;;22.30;43.40;;;;;;5126464;27;20028;-35
2024/02/04 00:30:07;;;;;;;3.22;1.15;;;22.30;43.50;;;;;;5127582;27;20042;-37
2024/02/04 00:32:33;;;;;;;4.05;1.05;;;22.20;43.50;;;;;;5134668;27;20027;-37
2024/02/04 00:34:59;;;;;;;1.35;1.17;;;22.20;43.40;;;;;;5134982;27;20035;-34
2024/02/04 00:37:26;;;;;;;1.40;1.30;;;22.30;43.30;;;;;;5137804;27;20023;-35
2024/02/04 00:39:52;;;;;;;1.42;1.15;;;22.30;43.30;;;;;;5136713;27;20019;-42
2024/02/04 00:42:18;;;;;;;1.48;1.23;;;22.30;43.30;;;;;;5137132;27;20027;-36
2024/02/04 00:44:44;;;;;;;3.00;1.40;;;22.30;43.40;;;;;;5133487;27;20502;-37
2024/02/04 00:47:10;;;;;;;1.95;1.42;;;22.20;43.40;;;;;;5138625;27;20062;-38
2024/02/04 00:49:37;;;;;;;1.60;1.20;;;22.20;43.50;;;;;;5133158;27;20039;-38
2024/02/04 00:52:03;;;;;;;1.80;1.60;;;22.20;43.50;;;;;;5108835;28;20279;-34
2024/02/04 00:54:29;;;;;;;2.50;1.30;;;22.30;43.40;;;;;;5136367;27;20106;-35
2024/02/04 00:56:57;;;;;;;2.40;1.08;;;22.30;43.40;;;;;;5135408;27;20038;-35
2024/02/04 00:59:23;;;;;;;1.83;1.13;;;22.30;43.30;;;;;;5133166;27;20753;-36
2024/02/04 01:01:49;;;;;;;1.83;1.45;;;22.30;43.40;;;;;;5133838;27;20551;-37
2024/02/04 01:04:15;;;;;;;1.92;1.40;;;22.20;43.40;;;;;;5129003;27;20050;-36
2024/02/04 01:06:41;;;;;;;2.40;1.50;;;22.20;43.50;;;;;;5129778;27;20104;-34
2024/02/04 01:09:08;;;;;;;2.17;1.38;;;22.20;43.50;;;;;;5127725;27;20041;-35
2024/02/04 01:11:34;;;;;;;3.13;1.70;;;22.20;43.40;;;;;;5124173;27;20087;-35
2024/02/04 01:14:00;;;;;;;1.40;1.30;;;22.30;43.90;;;;;;5127656;27;20027;-33
2024/02/04 01:16:26;;;;;;;1.85;1.50;;;22.30;43.30;;;;;;5134640;27;20047;-33
2024/02/04 01:18:53;;;;;;;1.73;1.23;;;22.20;43.20;;;;;;5132823;27;20038;-38
2024/02/04 01:21:19;;;;;;;1.60;1.40;;;22.20;43.30;;;;;;5134783;27;20461;-36
2024/02/04 01:23:45;;;;;;;1.98;1.50;;;22.20;43.30;;;;;;5130882;27;20031;-32
2024/02/04 01:26:11;;;;;;;1.40;1.30;;;22.10;43.30;;;;;;5129940;27;20023;-33
2024/02/04 01:28:37;;;;;;;2.88;1.20;;;22.10;43.30;;;;;;5129724;27;20038;-35
2024/02/04 01:31:04;;;;;;;2.65;1.33;;;22.30;43.40;;;;;;5137885;27;20375;-35
2024/02/04 01:33:30;;;;;;;2.10;1.35;;;22.30;43.30;;;;;;5129433;27;20051;-35
2024/02/04 01:35:58;;;;;;;1.50;1.30;;;22.20;43.20;;;;;;5133255;27;20034;-38
2024/02/04 01:38:24;;;;;;;2.67;1.45;;;22.20;43.20;;;;;;5138125;27;20032;-35
2024/02/04 01:40:52;;;;;;;5.60;1.58;;;22.20;43.30;;;;;;5137929;27;20035;-35
2024/02/04 01:43:21;;;;;;;1.65;1.50;;;22.20;43.30;;;;;;5129784;27;20023;-36
2024/02/04 01:45:47;;;;;;;2.08;1.48;;;22.20;43.30;;;;;;5131523;27;20035;-38
2024/02/04 01:48:15;;;;;;;1.60;1.50;;;22.20;43.10;;;;;;5131499;27;20019;-35
2024/02/04 01:50:42;;;;;;;2.05;1.50;;;22.30;43.20;;;;;;5143435;27;20055;-34
2024/02/04 01:53:08;;;;;;;1.55;1.38;;;22.30;43.00;;;;;;5126346;27;20058;-38
2024/02/04 01:55:34;;;;;;;1.30;1.20;;;22.30;43.10;;;;;;5138840;27;20027;-38
2024/02/04 01:58:01;;;;;;;1.80;1.45;;;22.20;43.00;;;;;;5132824;27;20381;-35
2024/02/04 02:00:27;;;;;;;2.15;1.38;;;22.20;43.10;;;;;;5128876;27;20037;-36
2024/02/04 02:02:54;;;;;;;1.63;1.40;;;22.20;43.60;;;;;;5132165;27;20035;-37
2024/02/04 02:05:20;;;;;;;1.90;1.70;;;22.30;43.00;;;;;;5130343;27;20109;-39
2024/02/04 02:07:51;;;;;;;2.22;1.88;;;22.30;42.90;;;;;;5134728;27;20035;-36
2024/02/04 02:10:18;;;;;;;2.08;1.80;;;22.30;42.90;;;;;;5130675;27;20111;-34
2024/02/04 02:13:03;;;;;;;1.80;1.58;;;22.20;42.90;;;;;;5135552;27;20038;-36
2024/02/04 02:15:36;;;;;;;2.10;1.90;;;22.20;43.00;;;;;;5132625;27;20078;-36
2024/02/04 02:18:07;;;;;;;2.00;1.80;;;22.10;42.90;;;;;;5108186;28;20038;-37
2024/02/04 02:20:59;;;;;;;1.98;1.77;;;22.20;42.90;;;;;;5125246;28;20034;-38
2024/02/04 02:23:35;;;;;;;2.83;1.98;;;22.30;42.80;;;;;;5114261;28;20023;-34
2024/02/04 02:26:02;;;;;;;2.10;1.90;;;22.30;42.70;;;;;;5128470;27;20848;-36
2024/02/04 02:28:28;;;;;;;3.08;2.47;;;22.20;42.70;;;;;;5133988;27;20066;-37
2024/02/04 02:30:54;;;;;;;2.60;2.00;;;22.20;42.90;;;;;;5137129;27;20038;-36
2024/02/04 02:33:20;;;;;;;2.10;1.90;;;22.10;42.80;;;;;;5140945;27;20031;-36
2024/02/04 02:35:48;;;;;;;2.30;2.10;;;22.20;42.80;;;;;;5131140;28;20049;-38
2024/02/04 02:38:29;;;;;;;2.20;2.00;;;22.20;42.80;;;;;;5107052;27;20483;-36
2024/02/04 02:40:58;;;;;;;2.22;1.95;;;22.30;42.70;;;;;;5116859;27;20053;-33
2024/02/04 02:43:25;;;;;;;2.20;2.00;;;22.30;42.60;;;;;;5137577;27;20407;-37
2024/02/04 02:45:51;;;;;;;2.27;2.03;;;22.20;42.60;;;;;;5146294;27;20023;-35
2024/02/04 02:48:17;;;;;;;2.78;2.08;;;22.20;42.70;;;;;;5120051;28;20275;-38
2024/02/04 02:50:43;;;;;;;2.80;2.25;;;22.10;42.70;;;;;;5136759;27;20043;-38
2024/02/04 02:53:09;;;;;;;2.35;1.90;;;22.20;42.80;;;;;;5129657;27;20038;-36
2024/02/04 02:55:35;;;;;;;1.80;1.65;;;22.20;42.70;;;;;;5108414;27;20039;-33
2024/02/04 02:58:02;;;;;;;2.30;1.67;;;22.30;42.70;;;;;;5132841;28;20019;-36
2024/02/04 03:00:28;;;;;;;2.53;2.03;;;22.20;42.60;;;;;;5131649;27;20054;-39
2024/02/04 03:02:55;;;;;;;3.33;1.80;;;22.20;42.70;;;;;;5131129;27;20472;-34
2024/02/04 03:05:21;;;;;;;2.28;2.03;;;22.10;42.80;;;;;;5131253;27;20031;-34
2024/02/04 03:07:47;;;;;;;2.10;1.90;;;22.10;42.80;;;;;;5133033;27;20700;-36
2024/02/04 03:10:13;;;;;;;2.28;1.95;;;22.20;42.90;;;;;;5133614;27;20077;-38
2024/02/04 03:12:40;;;;;;;1.70;1.60;;;22.20;42.70;;;;;;5132419;28;20023;-36
2024/02/04 03:15:06;;;;;;;2.65;2.03;;;22.30;42.70;;;;;;5114583;28;20034;-34
2024/02/04 03:17:32;;;;;;;2.80;2.10;;;22.20;42.60;;;;;;5134218;27;20056;-31
2024/02/04 03:19:58;;;;;;;2.67;2.03;;;22.20;42.60;;;;;;5128602;27;20046;-37
2024/02/04 03:22:25;;;;;;;2.15;1.95;;;22.10;42.70;;;;;;5135747;27;20026;-37
2024/02/04 03:24:52;;;;;;;2.83;2.33;;;22.10;42.70;;;;;;5136519;27;20080;-33
2024/02/04 03:27:18;;;;;;;1.73;1.50;;;22.20;42.80;;;;;;5132333;27;20091;-36
2024/02/04 03:29:44;;;;;;;2.70;2.07;;;22.20;42.80;;;;;;5131290;27;20387;-35
2024/02/04 03:32:13;;;;;;;1.73;1.63;;;22.20;42.70;;;;;;5135928;27;20031;-36
2024/02/04 03:34:41;;;;;;;2.72;2.15;;;22.20;42.60;;;;;;5140338;27;20040;-35
2024/02/04 03:37:08;;;;;;;2.20;1.98;;;22.20;42.80;;;;;;5127590;27;20031;-33
2024/02/04 03:39:34;;;;;;;2.13;1.90;;;22.10;42.80;;;;;;5135122;27;20073;-35
2024/02/04 03:42:00;;;;;;;2.20;2.00;;;22.10;42.70;;;;;;5135965;27;20054;-33
2024/02/04 03:44:26;;;;;;;3.42;2.03;;;22.20;42.80;;;;;;5131655;27;20024;-32
2024/02/04 03:46:52;;;;;;;2.33;1.75;;;22.20;42.80;;;;;;5141664;27;20035;-30
2024/02/04 03:49:19;;;;;;;4.07;2.13;;;22.20;42.70;;;;;;5132147;27;20076;-35
2024/02/04 03:51:45;;;;;;;3.50;1.75;;;22.20;42.80;;;;;;5138934;27;20034;-33
2024/02/04 03:54:12;;;;;;;2.28;2.05;;;22.10;42.80;;;;;;5137457;27;20100;-34
2024/02/04 03:56:38;;;;;;;2.20;2.00;;;22.10;42.80;;;;;;5135542;27;20027;-37
2024/02/04 03:59:04;;;;;;;2.42;2.10;;;22.10;43.40;;;;;;5129771;27;20020;-34
2024/02/04 04:01:30;;;;;;;2.20;2.00;;;22.20;42.90;;;;;;5137360;27;20057;-37
2024/02/04 04:03:56;;;;;;;2.15;1.95;;;22.20;42.80;;;;;;5139616;27;20023;-34
2024/02/04 04:06:23;;;;;;;2.13;1.92;;;22.20;43.20;;;;;;5130128;27;20118;-37
2024/02/04 04:08:49;;;;;;;2.15;1.63;;;22.20;42.70;;;;;;5131852;27;20127;-36
2024/02/04 04:11:15;;;;;;;2.38;2.00;;;22.10;42.60;;;;;;5135018;27;20042;-34
2024/02/04 04:13:41;;;;;;;2.47;2.00;;;22.10;42.70;;;;;;5137273;27;20019;-37
2024/02/04 04:16:07;;;;;;;2.33;2.03;;;22.10;42.70;;;;;;5140846;27;20031;-35
2024/02/04 04:18:34;;;;;;;2.05;1.80;;;22.10;42.70;;;;;;5136981;27;20069;-36
2024/02/04 04:21:00;;;;;;;2.60;2.28;;;22.20;42.60;;;;;;5133794;27;20041;-33
2024/02/04 04:23:26;;;;;;;2.20;1.95;;;22.20;42.50;;;;;;5137306;27;20752;-34
2024/02/04 04:25:52;;;;;;;2.53;2.10;;;22.20;42.50;;;;;;5137090;27;20038;-38
2024/02/04 04:28:18;;;;;;;2.08;1.88;;;22.10;42.60;;;;;;5136856;27;20495;-38
2024/02/04 04:30:44;;;;;;;3.05;1.75;;;22.10;42.60;;;;;;5135858;27;20039;-37
2024/02/04 04:33:12;;;;;;;2.00;1.60;;;22.10;42.70;;;;;;5133856;27;20027;-34
2024/02/04 04:35:39;;;;;;;2.17;1.98;;;22.20;42.60;;;;;;5135542;27;20047;-36
2024/02/04 04:38:06;;;;;;;2.15;1.88;;;22.20;42.60;;;;;;5135790;27;20520;-37
2024/02/04 04:40:32;;;;;;;1.48;1.38;;;22.20;42.50;;;;;;5136208;27;20042;-33
2024/02/04 04:42:58;;;;;;;2.20;1.75;;;22.10;42.50;;;;;;5135098;27;20054;-36
2024/02/04 04:45:24;;;;;;;2.22;1.80;;;22.10;42.60;;;;;;5134178;27;20056;-35
2024/02/04 04:47:50;;;;;;;1.70;1.60;;;22.10;43.20;;;;;;5137453;27;20031;-38
2024/02/04 04:50:16;;;;;;;1.90;1.48;;;22.10;42.60;;;;;;5135926;27;20050;-35
2024/02/04 04:52:42;;;;;;;1.75;1.60;;;22.20;42.60;;;;;;5127231;27;20054;-36
2024/02/04 04:55:09;;;;;;;1.67;1.58;;;22.20;42.60;;;;;;5142027;27;20039;-32
2024/02/04 04:57:35;;;;;;;1.70;1.50;;;22.20;42.50;;;;;;5140360;27;20031;-37
2024/02/04 05:00:06;;;;;;;2.45;1.52;;;22.10;42.50;;;;;;5138091;27;20084;-35
2024/02/04 05:02:33;;;;;;;1.88;1.52;;;22.00;42.60;;;;;;5136229;27;20126;-36
2024/02/04 05:04:59;;;;;;;3.10;1.70;;;22.10;42.60;;;;;;5141683;27;20027;-32
2024/02/04 05:07:25;;;;;;;1.63;1.42;;;22.10;42.50;;;;;;5141104;27;20027;-37
2024/02/04 05:09:52;;;;;;;1.88;1.60;;;22.20;42.50;;;;;;5139562;27;20492;-33
2024/02/04 05:12:18;;;;;;;1.48;1.38;;;22.20;42.50;;;;;;5138902;27;20034;-35
2024/02/04 05:14:44;;;;;;;2.60;1.30;;;22.10;42.30;;;;;;5137326;27;20046;-35
2024/02/04 05:17:10;;;;;;;1.52;1.40;;;22.10;42.50;;;;;;5138337;27;20015;-37
2024/02/04 05:19:36;;;;;;;1.83;1.63;;;22.10;42.50;;;;;;5141652;27;20449;-37
2024/02/04 05:22:03;;;;;;;1.50;1.40;;;22.10;42.50;;;;;;5130162;27;20034;-35
2024/02/04 05:24:29;;;;;;;1.40;1.27;;;22.10;42.50;;;;;;5128206;27;20041;-35
2024/02/04 05:26:55;;;;;;;1.45;1.33;;;22.20;42.40;;;;;;5132649;27;22118;-33
2024/02/04 05:29:21;;;;;;;2.38;1.50;;;22.20;42.40;;;;;;5125644;27;20035;-36
2024/02/04 05:31:47;;;;;;;1.50;1.27;;;22.10;42.40;;;;;;5120022;27;20054;-35
2024/02/04 05:34:14;;;;;;;1.65;1.40;;;22.10;42.40;;;;;;5120151;27;20092;-34
2024/02/04 05:36:41;;;;;;;1.88;1.30;;;22.00;42.40;;;;;;5101751;27;20030;-33
2024/02/04 05:39:11;;;;;;;;;;;22.10;42.50;;;;;;5104144;27;20023;-38
2024/02/04 05:41:37;;;;;;;1.23;1.13;;;22.10;42.50;;;;;;5128626;27;19986;-37
2024/02/04 05:44:04;;;;;;;0.97;0.90;;;22.10;42.40;;;;;;5102371;27;20054;-34
2024/02/04 05:46:30;;;;;;;1.23;1.13;;;22.10;42.40;;;;;;5117950;27;20031;-35
2024/02/04 05:48:56;;;;;;;1.50;1.15;;;22.10;42.40;;;;;;5120834;27;20031;-36
2024/02/04 05:51:22;;;;;;;2.63;1.33;;;22.00;42.40;;;;;;5120208;27;21457;-35
2024/02/04 05:53:48;;;;;;;2.28;1.75;;;22.00;42.60;;;;;;5122269;27;20140;-37
2024/02/04 05:56:14;;;;;;;2.45;2.00;;;22.00;43.40;;;;;;5131707;27;20122;-36
2024/02/04 05:58:41;;;;;;;4.72;1.80;;;22.10;42.80;;;;;;5133503;27;20027;-36
2024/02/04 06:01:07;;;;;;;2.08;1.70;;;22.10;42.80;;;;;;5136539;27;20035;-34
2024/02/04 06:03:33;;;;;;;2.60;1.88;;;22.00;42.80;;;;;;5136866;27;20038;-35
2024/02/04 06:06:00;;;;;;;3.45;1.65;;;21.90;42.90;;;;;;5138501;27;20103;-36
2024/02/04 06:08:26;;;;;;;2.47;1.67;;;21.90;42.90;;;;;;5136475;27;20035;-36
2024/02/04 06:10:52;;;;;;;1.98;1.65;;;21.90;42.90;;;;;;5136436;27;21478;-36
2024/02/04 06:13:18;;;;;;;1.70;1.60;;;22.00;42.80;;;;;;5136500;27;20032;-34
2024/02/04 06:15:44;;;;;;;2.42;1.52;;;22.10;42.60;;;;;;5134859;27;20069;-35
2024/02/04 06:18:10;;;;;;;1.40;1.30;;;22.00;42.70;;;;;;5139026;27;20524;-37
2024/02/04 06:20:36;;;;;;;1.52;1.40;;;21.90;42.80;;;;;;5119390;27;20023;-37
2024/02/04 06:23:03;;;;;;;2.70;1.52;;;21.90;42.90;;;;;;5134571;27;20034;-35
2024/02/04 06:25:29;;;;;;;1.55;1.40;;;21.80;43.00;;;;;;5129293;27;20035;-32
2024/02/04 06:27:55;;;;;;;1.50;1.20;;;21.80;42.90;;;;;;5131828;27;20035;-36
2024/02/04 06:30:21;;;;;;;1.30;1.20;;;21.90;42.80;;;;;;5130381;27;20055;-39
2024/02/04 06:32:50;;;;;;;3.10;1.73;;;22.00;42.70;;;;;;5134671;27;20035;-36
2024/02/04 06:35:17;;;;;;;2.10;1.25;;;21.90;42.80;;;;;;5133102;27;20035;-35
2024/02/04 06:37:43;;;;;;;1.42;1.33;;;21.90;42.80;;;;;;5127609;27;20031;-34
2024/02/04 06:40:10;;;;;;;1.45;1.27;;;21.80;42.90;;;;;;5131305;28;20102;-35
2024/02/04 06:42:36;;;;;;;2.05;1.30;;;21.70;42.90;;;;;;5110610;27;20035;-35
2024/02/04 06:45:03;;;;;;;1.60;1.35;;;21.80;42.90;;;;;;5129009;27;20043;-34
2024/02/04 06:47:29;;;;;;;1.42;1.33;;;21.90;42.60;;;;;;5130165;27;20027;-34
2024/02/04 06:49:55;;;;;;;1.20;1.10;;;22.00;43.20;;;;;;5131026;27;20271;-37
2024/02/04 06:52:21;;;;;;;1.77;1.30;;;21.90;42.60;;;;;;5130483;27;20281;-36
2024/02/04 06:54:47;;;;;;;1.45;1.23;;;21.80;42.70;;;;;;5136815;27;20045;-34
2024/02/04 06:57:13;;;;;;;1.50;1.23;;;21.80;42.80;;;;;;5137064;27;20380;-37
2024/02/04 06:59:40;;;;;;;1.15;1.05;;;21.80;42.90;;;;;;5133452;27;20027;-35
2024/02/04 07:02:06;;;;;;;1.40;1.20;;;21.80;42.70;;;;;;5125671;27;20422;-35
2024/02/04 07:04:32;;;;;;;1.35;1.25;;;22.00;42.60;;;;;;5134081;27;20023;-38
2024/02/04 07:06:58;;;;;;;1.48;1.30;;;21.90;42.50;;;;;;5140817;27;20023;-35
2024/02/04 07:09:24;;;;;;;1.40;1.25;;;21.80;42.60;;;;;;5132605;27;20043;-34
2024/02/04 07:11:50;;;;;;;1.75;1.50;;;21.80;42.70;;;;;;5130804;27;20024;-32
2024/02/04 07:14:16;;;;;;;1.38;1.27;;;21.70;42.70;;;;;;5128936;27;20136;-35
2024/02/04 07:16:43;;;;;;;1.40;1.30;;;21.70;42.60;;;;;;5131840;27;20087;-32
2024/02/04 07:19:09;;;;;;;1.75;1.35;;;21.90;42.50;;;;;;5133811;27;20038;-34
2024/02/04 07:21:35;;;;;;;1.40;1.30;;;21.90;42.40;;;;;;5131924;27;20031;-36
2024/02/04 07:24:01;;;;;;;2.03;1.60;;;21.80;42.40;;;;;;5141179;27;20064;-38
2024/02/04 07:26:27;;;;;;;2.00;1.40;;;21.80;42.60;;;;;;5129789;27;20027;-36
2024/02/04 07:28:54;;;;;;;1.95;1.50;;;21.70;43.20;;;;;;5139060;27;20287;-37
2024/02/04 07:31:20;;;;;;;1.58;1.33;;;21.70;42.60;;;;;;5131264;27;20400;-33
2024/02/04 07:33:46;;;;;;;1.30;1.20;;;21.80;42.50;;;;;;5133373;27;20027;-36
2024/02/04 07:36:12;;;;;;;2.45;1.40;;;21.90;42.40;;;;;;5128757;27;20059;-33
2024/02/04 07:38:39;;;;;;;1.55;1.33;;;21.80;42.40;;;;;;5139515;27;20039;-36
2024/02/04 07:41:05;;;;;;;1.35;1.13;;;21.70;42.50;;;;;;5130277;27;20026;-32
2024/02/04 07:43:31;;;;;;;1.40;1.30;;;21.70;42.60;;;;;;5141838;27;20030;-35
2024/02/04 07:45:57;;;;;;;1.42;1.20;;;21.60;42.60;;;;;;5122136;27;20027;-33
2024/02/04 07:48:23;;;;;;;1.27;1.17;;;21.80;42.50;;;;;;5114728;27;20027;-35
2024/02/04 07:50:49;;;;;;;2.85;1.20;;;21.80;42.30;;;;;;5131117;27;20044;-35
2024/02/04 07:53:15;;;;;;;1.42;1.30;;;21.80;42.30;;;;;;5110395;27;20043;-36
2024/02/04 07:55:42;;;;;;;1.45;1.35;;;21.70;42.40;;;;;;5130157;27;20038;-33
2024/02/04 07:58:08;;;;;;;1.95;1.40;;;21.70;42.50;;;;;;5136774;27;20082;-36
2024/02/04 08:00:34;;;;;;;1.40;1.30;;;21.60;42.50;;;;;;5128729;27;20047;-35
2024/02/04 08:03:00;;;;;;;1.77;1.40;;;21.70;42.50;;;;;;5137622;27;20786;-36
2024/02/04 08:05:26;;;;;;;4.53;1.20;;;21.80;42.30;;;;;;5136826;27;20020;-34
2024/02/04 08:07:52;;;;;;;19.67;5.70;;;21.80;42.30;;;;;;5127955;27;20555;-36
2024/02/04 08:10:18;;;;;;;18.02;4.65;;;21.80;42.50;;;;;;5136013;27;20054;-35
2024/02/04 08:12:50;;;;;;;15.75;4.65;;;21.70;42.60;;;;;;5141207;27;20031;-36
2024/02/04 08:15:17;;;;;;;11.85;3.72;;;21.70;42.70;;;;;;5131360;27;20070;-40
2024/02/04 08:17:43;;;;;;;8.70;2.97;;;21.60;42.60;;;;;;5132626;27;20035;-33
2024/02/04 08:20:10;;;;;;;5.53;2.75;;;21.70;42.40;;;;;;5137624;27;20019;-37
2024/02/04 08:22:36;;;;;;;4.45;2.30;;;21.80;42.20;;;;;;5127951;27;20031;-32
2024/02/04 08:25:03;;;;;;;5.32;2.40;;;21.80;42.20;;;;;;5130208;27;20102;-34
2024/02/04 08:27:29;;;;;;;4.15;2.30;;;21.80;42.30;;;;;;5134734;27;20057;-37
2024/02/04 08:29:55;;;;;;;3.17;1.90;;;21.70;42.50;;;;;;5135442;27;20103;-33
2024/02/04 08:32:21;;;;;;;4.85;2.10;;;21.60;42.50;;;;;;5133972;27;20031;-36
2024/02/04 08:34:48;;;;;;;2.55;1.73;;;21.60;42.50;;;;;;5135750;27;20794;-37
2024/02/04 08:37:14;;;;;;;2.70;1.30;;;21.70;42.30;;;;;;5134067;27;20031;-34
2024/02/04 08:39:40;;;;;;;2.38;1.75;;;21.80;42.20;;;;;;5131827;27;20030;-36
2024/02/04 08:42:06;;;;;;;2.15;1.42;;;21.80;42.20;;;;;;5134283;27;20019;-34
2024/02/04 08:44:32;;;;;;;2.33;1.70;;;21.70;42.30;;;;;;5133249;27;20043;-35
2024/02/04 08:46:58;;;;;;;2.08;1.40;;;21.60;42.40;;;;;;5134947;27;20033;-32
2024/02/04 08:49:24;;;;;;;2.03;1.38;;;21.60;42.40;;;;;;5135694;27;20030;-38
2024/02/04 08:51:51;;;;;;;1.92;1.30;;;21.60;42.30;;;;;;5133366;27;20031;-37
2024/02/04 08:54:17;;;;;;;1.83;1.50;;;21.80;42.10;;;;;;5127765;27;20035;-39
2024/02/04 08:56:43;;;;;;;1.80;1.23;;;21.80;42.00;;;;;;5130164;27;20104;-37
2024/02/04 08:59:09;;;;;;;2.10;1.45;;;21.80;42.10;;;;;;5134486;27;20082;-38
2024/02/04 09:01:35;;;;;;;1.83;1.40;;;21.70;42.10;;;;;;5132970;27;20062;-35
2024/02/04 09:04:02;;;;;;;1.23;1.13;;;21.70;42.30;;;;;;5132747;27;20075;-37
2024/02/04 09:06:28;;;;;;;2.40;1.58;;;21.60;42.30;;;;;;5129209;27;20031;-37
2024/02/04 09:08:54;;;;;;;2.00;1.02;;;21.70;42.20;;;;;;5142713;27;20027;-35
2024/02/04 09:11:20;;;;;;;1.48;1.10;;;21.80;42.00;;;;;;5137283;27;20516;-37
2024/02/04 09:13:46;;;;;;;1.80;1.20;;;21.80;41.90;;;;;;5130707;27;20027;-37
2024/02/04 09:16:13;;;;;;;1.20;1.02;;;21.70;42.00;;;;;;5138199;27;20059;-33
2024/02/04 09:18:39;;;;;;;1.10;0.98;;;21.70;42.10;;;;;;5127684;27;20023;-34
2024/02/04 09:21:05;;;;;;;1.27;1.00;;;21.60;42.20;;;;;;5134257;27;20031;-33
2024/02/04 09:23:31;;;;;;;2.15;1.13;;;21.60;42.10;;;;;;5116129;27;20023;-32
2024/02/04 09:25:57;;;;;;;1.50;1.10;;;21.70;42.00;;;;;;5135510;27;20027;-35
2024/02/04 09:28:24;;;;;;;0.90;0.90;;;21.80;41.80;;;;;;5112933;27;20035;-35
2024/02/04 09:30:50;;;;;;;1.38;1.10;;;21.80;41.90;;;;;;5133932;27;20046;-35
2024/02/04 09:33:16;;;;;;;1.17;1.00;;;21.70;42.00;;;;;;5134436;27;20027;-35
2024/02/04 09:35:42;;;;;;;1.20;0.98;;;21.60;42.00;;;;;;5135486;27;20058;-34
2024/02/04 09:38:08;;;;;;;1.30;0.95;;;21.60;42.10;;;;;;5133394;27;20027;-34
2024/02/04 09:40:34;;;;;;;1.23;1.00;;;21.60;42.00;;;;;;5133360;27;20090;-37
2024/02/04 09:43:01;;;;;;;1.60;1.10;;;21.80;41.80;;;;;;5131689;27;20476;-33
2024/02/04 09:45:27;;;;;;;1.52;1.10;;;21.80;41.70;;;;;;5114714;27;20051;-34
2024/02/04 09:47:53;;;;;;;1.30;1.08;;;21.80;41.80;;;;;;5132514;27;20046;-37
2024/02/04 09:50:22;;;;;;;1.38;1.17;;;21.70;41.90;;;;;;5134072;27;20042;-33
2024/02/04 09:52:52;;;;;;;2.65;0.98;;;21.60;41.90;;;;;;5118940;27;20054;-38
2024/02/04 09:55:19;;;;;;;2.60;1.10;;;21.60;41.90;;;;;;5113477;27;20039;-37
2024/02/04 09:57:45;;;;;;;;;;;21.70;41.90;;;;;;5145972;27;20032;-38
2024/02/04 10:00:12;;;;;;;1.90;1.00;;;21.80;42.00;;;;;;5134721;27;19918;-38
2024/02/04 10:02:38;;;;;;;1.30;1.20;;;21.80;42.00;;;;;;5114508;27;20083;-35
2024/02/04 10:05:04;;;;;;;1.77;1.40;;;21.80;42.10;;;;;;5135635;27;20122;-37
2024/02/04 10:07:30;;;;;;;1.50;1.40;;;21.80;42.30;;;;;;5139458;27;20023;-37
2024/02/04 10:09:56;;;;;;;1.73;1.23;;;21.80;42.30;;;;;;5139078;27;20054;-36
2024/02/04 10:12:23;;;;;;;1.38;1.27;;;21.80;42.30;;;;;;5128665;27;20027;-36
2024/02/04 10:14:52;;;;;;;1.65;1.55;;;21.80;42.10;;;;;;5117854;27;20055;-34
2024/02/04 10:17:20;;;;;;;1.80;1.50;;;21.80;42.10;;;;;;5137079;27;20042;-37
2024/02/04 10:19:48;;;;;;;1.55;1.45;;;21.80;42.10;;;;;;5115189;28;20650;-36
2024/02/04 10:22:16;;;;;;;4.80;1.48;;;21.80;42.10;;;;;;5127647;27;20027;-35
2024/02/04 10:24:43;;;;;;;2.92;1.27;;;21.80;42.00;;;;;;5131718;27;20696;-37
2024/02/04 10:27:11;;;;;;;3.00;1.47;;;21.80;42.10;;;;;;5133227;27;20031;-34
2024/02/04 10:29:37;;;;;;;1.88;1.40;;;21.80;41.90;;;;;;5109811;27;20051;-35
2024/02/04 10:32:03;;;;;;;3.13;1.40;;;21.80;41.90;;;;;;5135199;27;20035;-34
2024/02/04 10:34:30;;;;;;;1.80;1.60;;;21.80;42.60;;;;;;5138784;27;20396;-35
2024/02/04 10:36:58;;;;;;;2.03;1.40;;;21.80;41.90;;;;;;5138551;27;20263;-38
2024/02/04 10:39:25;;;;;;;3.63;1.33;;;21.80;42.00;;;;;;5135286;27;20118;-33
2024/02/04 10:41:52;;;;;;;2.92;1.42;;;21.80;42.00;;;;;;5133601;27;20035;-36
2024/02/04 10:44:23;;;;;;;1.63;1.27;;;21.80;42.00;;;;;;5129738;27;20031;-32
2024/02/04 10:46:50;;;;;;;1.50;1.40;;;21.80;41.90;;;;;;5131154;27;20065;-37
2024/02/04 10:49:16;;;;;;;1.77;1.50;;;21.90;41.90;;;;;;5112376;27;20114;-36
2024/02/04 10:51:43;;;;;;;1.88;1.45;;;21.90;42.00;;;;;;5112415;27;20044;-32
2024/02/04 10:54:09;;;;;;;1.25;1.15;;;21.90;41.90;;;;;;5114808;27;20043;-34
2024/02/04 10:56:41;;;;;;;2.00;1.30;;;21.90;42.00;;;;;;5133444;27;20099;-37
2024/02/04 10:59:08;;;;;;;1.67;1.23;;;21.80;41.90;;;;;;5135940;27;20024;-33
2024/02/04 11:01:34;;;;;;;1.55;1.30;;;21.80;41.90;;;;;;5115825;27;20024;-34
2024/02/04 11:04:00;;;;;;;1.42;1.30;;;21.80;41.90;;;;;;5113488;27;20114;-35
2024/02/04 11:06:26;;;;;;;1.83;1.10;;;21.80;41.80;;;;;;5128173;27;20023;-34
2024/02/04 11:08:53;;;;;;;5.57;1.25;;;21.90;41.90;;;;;;5108862;27;20039;-32
2024/02/04 11:11:22;;;;;;;2.50;1.40;;;21.90;41.90;;;;;;5134792;27;20050;-32
2024/02/04 11:13:48;;;;;;;7.72;2.05;;;21.90;42.10;;;;;;5136611;27;20275;-35
2024/02/04 11:16:59;;;;;;;4.72;1.95;;;21.90;42.10;;;;;;5107124;27;20027;-35
2024/02/04 11:19:31;;;;;;;5.43;2.60;;;21.90;42.20;;;;;;5133602;27;20064;-34
2024/02/04 11:22:19;;;;;;;5.00;1.70;;;21.90;42.40;;;;;;5118362;27;20023;-36
2024/02/04 11:25:22;;;;;;;5.90;2.00;;;21.90;42.10;;;;;;5138591;27;20035;-37
2024/02/04 11:27:48;;;;;;;4.70;1.85;;;21.90;42.10;;;;;;5095723;27;20035;-34
2024/02/04 11:30:15;;;;;;;2.85;1.63;;;21.90;42.10;;;;;;5132050;27;20031;-41
2024/02/04 11:32:42;;;;;;;44.45;3.33;;;21.90;42.10;;;;;;5136600;27;20052;-35
2024/02/04 11:35:11;;;;;;;10.63;2.20;;;21.90;42.40;;;;;;5138355;27;20031;-33
2024/02/04 11:37:37;;;;;;;4.93;2.15;;;21.90;42.40;;;;;;5117818;27;20034;-31
2024/02/04 11:40:06;;;;;;;4.60;1.90;;;21.90;42.00;;;;;;5117898;27;20201;-33
2024/02/04 11:42:33;;;;;;;3.05;1.75;;;22.00;41.80;;;;;;5138160;27;20031;-36
2024/02/04 11:45:17;;;;;;;5.38;1.95;;;22.10;41.90;;;;;;5138311;27;20064;-32
2024/02/04 11:47:44;;;;;;;3.72;1.73;;;22.00;42.10;;;;;;5138184;27;20035;-34
2024/02/04 11:50:10;;;;;;;2.45;1.60;;;22.00;42.10;;;;;;5135988;27;20035;-35
2024/02/04 11:52:36;;;;;;;2.17;1.70;;;22.00;42.00;;;;;;5135407;27;20049;-34
2024/02/04 11:55:04;;;;;;;5.30;1.90;;;22.00;41.90;;;;;;5112201;27;20140;-31
2024/02/04 11:57:30;;;;;;;3.38;1.60;;;21.90;41.70;;;;;;5127083;27;20034;-35
2024/02/04 11:59:56;;;;;;;1.65;1.55;;;22.00;41.50;;;;;;5114233;27;20110;-35
2024/02/04 12:02:22;;;;;;;12.85;3.40;;;22.10;41.50;;;;;;5115987;27;20023;-37
2024/02/04 12:04:48;;;;;;;8.43;2.30;;;22.10;41.70;;;;;;5136519;27;20057;-34
2024/02/04 12:07:14;;;;;;;10.90;2.33;;;22.10;41.80;;;;;;5135948;27;20066;-34
2024/02/04 12:09:41;;;;;;;9.90;2.50;;;22.00;41.70;;;;;;5134742;27;20066;-33
2024/02/04 12:12:08;;;;;;;3.47;1.80;;;22.00;41.70;;;;;;5115467;27;20023;-34
2024/02/04 12:14:35;;;;;;;6.22;2.10;;;21.90;41.50;;;;;;5134098;27;20042;-33
2024/02/04 12:17:09;;;;;;;2.70;1.80;;;22.00;41.30;;;;;;5114388;27;20054;-35
2024/02/04 12:19:36;;;;;;;2.60;1.90;;;22.10;41.10;;;;;;5137138;27;20064;-36
2024/02/04 12:22:07;;;;;;;2.60;1.40;;;22.00;41.10;;;;;;5133839;27;21377;-35
2024/02/04 12:24:34;;;;;;;2.90;2.00;;;22.00;41.10;;;;;;5140689;27;20058;-37
2024/02/04 12:27:00;;;;;;;2.97;1.73;;;22.00;41.20;;;;;;5135588;27;20031;-35
2024/02/04 12:29:26;;;;;;;3.67;1.88;;;21.90;41.30;;;;;;5139257;27;20019;-34
2024/02/04 12:32:05;;;;;;;3.13;1.57;;;21.90;41.10;;;;;;5137307;27;20031;-34
2024/02/04 12:34:34;;;;;;;3.58;1.65;;;22.00;40.90;;;;;;5136519;27;20026;-35
2024/02/04 12:37:00;;;;;;;3.80;1.50;;;22.00;41.40;;;;;;5132267;27;20028;-35
2024/02/04 12:39:27;;;;;;;2.63;1.80;;;22.00;41.00;;;;;;5130709;27;20099;-31
2024/02/04 12:41:53;;;;;;;2.35;1.58;;;22.00;41.00;;;;;;5148135;27;20031;-37
2024/02/04 12:44:19;;;;;;;1.50;1.30;;;21.90;41.00;;;;;;5138462;27;20051;-35
2024/02/04 12:46:45;;;;;;;3.30;1.67;;;21.90;41.00;;;;;;5138427;27;20034;-31